Time;durP1;ratioP1;P1;durP2;ratioP2;P2;SDS_P1;SDS_P2;PMS_P1;PMS_P2;Temp;Humidity;BMP_temperature;BMP_pressure;BME280_temperature;BME280_humidity;BME280_pressure;Samples;Min_cycle;Max_cycle;Signal;HPM_P1;HPM_P2
2023/03/02 00:01:34;;;;;;;18.45;8.77;;;0.00;99.90;;;;;;5052603;28;20033;-46
2023/03/02 00:04:02;;;;;;;17.00;8.38;;;0.00;99.90;;;;;;5051900;28;20013;-46
2023/03/02 00:06:29;;;;;;;14.13;8.15;;;0.00;99.90;;;;;;5052194;28;20450;-44
2023/03/02 00:08:59;;;;;;;17.70;8.45;;;0.00;99.90;;;;;;5051669;28;20366;-45
2023/03/02 00:11:26;;;;;;;17.23;8.93;;;0.00;99.90;;;;;;5050386;28;20025;-44
2023/03/02 00:13:51;;;;;;;12.50;7.55;;;0.00;99.90;;;;;;5050821;28;20035;-44
2023/03/02 00:16:17;;;;;;;17.45;7.30;;;-0.10;99.90;;;;;;5050774;28;20028;-44
2023/03/02 00:18:42;;;;;;;16.40;8.10;;;-0.10;99.90;;;;;;5051613;28;20171;-46
2023/03/02 00:21:09;;;;;;;21.73;9.25;;;-0.10;99.90;;;;;;5049394;28;20029;-45
2023/03/02 00:23:36;;;;;;;13.20;7.53;;;-0.20;99.90;;;;;;5047298;28;20017;-44
2023/03/02 00:26:01;;;;;;;19.70;8.77;;;-0.20;99.90;;;;;;5052094;28;20017;-44
2023/03/02 00:28:28;;;;;;;16.30;9.18;;;-0.30;99.90;;;;;;5051719;28;20036;-48
2023/03/02 00:30:54;;;;;;;21.70;10.77;;;-0.30;99.90;;;;;;5051789;28;20123;-44
2023/03/02 00:33:19;;;;;;;16.25;10.55;;;-0.30;99.90;;;;;;5051118;28;20033;-44
2023/03/02 00:35:46;;;;;;;21.17;10.85;;;-0.20;99.90;;;;;;5051568;28;20456;-44
2023/03/02 00:38:12;;;;;;;17.77;10.00;;;-0.20;99.90;;;;;;5051226;28;20021;-46
2023/03/02 00:40:47;;;;;;;14.15;8.68;;;-0.30;99.90;;;;;;5051443;28;20025;-45
2023/03/02 00:43:14;;;;;;;17.70;9.18;;;-0.30;99.90;;;;;;5051230;28;20017;-45
2023/03/02 00:45:39;;;;;;;19.67;10.57;;;-0.30;99.90;;;;;;5051303;28;20033;-44
2023/03/02 00:48:05;;;;;;;17.40;8.45;;;-0.30;99.90;;;;;;5051173;28;20090;-44
2023/03/02 00:50:31;;;;;;;18.98;10.00;;;-0.30;99.90;;;;;;5051464;28;20025;-45
2023/03/02 00:52:56;;;;;;;18.30;9.35;;;-0.30;99.90;;;;;;5049955;28;20018;-44
2023/03/02 00:55:22;;;;;;;19.60;9.52;;;-0.30;99.90;;;;;;5051164;28;20057;-44
2023/03/02 00:57:53;;;;;;;17.75;10.18;;;-0.30;99.90;;;;;;5050852;28;20078;-44
2023/03/02 01:00:23;;;;;;;22.05;10.68;;;-0.30;99.90;;;;;;5050917;28;20013;-45
2023/03/02 01:02:49;;;;;;;15.33;9.80;;;-0.30;99.90;;;;;;5051010;28;20650;-47
2023/03/02 01:05:16;;;;;;;20.95;10.55;;;-0.20;99.90;;;;;;5050027;28;20020;-45
2023/03/02 01:07:42;;;;;;;22.15;10.32;;;-0.30;99.90;;;;;;5050600;28;20040;-45
2023/03/02 01:10:08;;;;;;;20.02;8.45;;;-0.30;99.90;;;;;;5050693;28;20033;-45
2023/03/02 01:12:34;;;;;;;21.65;10.40;;;-0.30;99.90;;;;;;5050514;28;20048;-45
2023/03/02 01:14:59;;;;;;;21.52;10.55;;;-0.30;99.90;;;;;;5050258;28;20072;-46
2023/03/02 01:17:26;;;;;;;19.27;9.82;;;-0.30;99.90;;;;;;5050851;28;20176;-47
2023/03/02 01:19:52;;;;;;;18.95;10.02;;;-0.30;99.90;;;;;;5050673;28;20020;-45
2023/03/02 01:22:18;;;;;;;19.63;10.35;;;-0.30;99.90;;;;;;5049705;28;20025;-45
2023/03/02 01:24:44;;;;;;;18.55;10.43;;;-0.40;99.90;;;;;;5050011;28;20107;-45
2023/03/02 01:27:09;;;;;;;19.05;10.10;;;-0.40;99.90;;;;;;5050429;28;20104;-45
2023/03/02 01:29:35;;;;;;;22.02;11.23;;;-0.40;99.90;;;;;;5050688;28;20029;-44
2023/03/02 01:32:01;;;;;;;20.88;11.15;;;-0.40;99.90;;;;;;5049523;28;20013;-45
2023/03/02 01:34:27;;;;;;;25.05;11.50;;;-0.50;99.90;;;;;;5049968;28;20547;-47
2023/03/02 01:36:53;;;;;;;23.70;11.30;;;-0.50;99.90;;;;;;5050673;28;20021;-44
2023/03/02 01:39:21;;;;;;;26.60;12.98;;;-0.50;99.90;;;;;;5050163;28;20425;-45
2023/03/02 01:41:48;;;;;;;32.88;15.00;;;-0.50;99.90;;;;;;5048677;28;20019;-44
2023/03/02 01:44:43;;;;;;;29.60;14.65;;;-0.50;99.90;;;;;;5049815;28;20032;-44
2023/03/02 01:47:21;;;;;;;40.20;17.15;;;-0.50;99.90;;;;;;5049975;28;20402;-45
2023/03/02 01:49:52;;;;;;;45.00;21.00;;;-0.50;99.90;;;;;;5048973;28;20029;-45
2023/03/02 01:52:18;;;;;;;47.25;21.45;;;-0.50;99.90;;;;;;5053022;28;20037;-45
2023/03/02 01:54:48;;;;;;;48.00;22.60;;;-0.40;99.90;;;;;;5069747;28;20032;-45
2023/03/02 01:57:20;;;;;;;57.10;24.67;;;-0.40;99.90;;;;;;5070007;28;20017;-45
2023/03/02 01:59:47;;;;;;;58.67;24.70;;;-0.40;99.90;;;;;;5070476;28;20372;-45
2023/03/02 02:02:12;;;;;;;53.63;22.42;;;-0.30;99.90;;;;;;5069507;28;20497;-44
2023/03/02 02:04:40;;;;;;;56.80;23.95;;;-0.30;99.90;;;;;;5068339;28;20044;-44
2023/03/02 02:07:08;;;;;;;52.33;24.85;;;-0.30;99.90;;;;;;5069619;28;20567;-44
2023/03/02 02:09:38;;;;;;;56.65;22.90;;;-0.20;99.90;;;;;;5069604;28;20031;-44
2023/03/02 02:12:04;;;;;;;54.15;23.50;;;-0.20;99.90;;;;;;5063040;28;20025;-44
2023/03/02 02:14:30;;;;;;;60.10;24.40;;;-0.20;99.90;;;;;;5048921;28;20028;-44
2023/03/02 02:16:56;;;;;;;63.03;25.20;;;-0.20;99.90;;;;;;5047484;28;20029;-46
2023/03/02 02:19:31;;;;;;;60.83;25.00;;;-0.10;99.90;;;;;;5049647;28;20029;-46
2023/03/02 02:21:56;;;;;;;64.63;25.80;;;-0.10;99.90;;;;;;5049068;28;20039;-45
2023/03/02 02:24:39;;;;;;;65.50;26.00;;;-0.10;99.90;;;;;;5048841;28;20466;-46
2023/03/02 02:27:04;;;;;;;60.97;26.35;;;0.00;99.90;;;;;;5048146;28;20492;-44
2023/03/02 02:29:33;;;;;;;93.93;28.20;;;0.00;99.90;;;;;;5049192;28;20112;-45
2023/03/02 02:32:05;;;;;;;62.55;27.85;;;0.00;99.90;;;;;;5048558;28;20021;-44
2023/03/02 02:34:33;;;;;;;71.28;29.48;;;0.00;99.90;;;;;;5048840;28;20041;-44
2023/03/02 02:37:10;;;;;;;85.95;29.60;;;0.10;99.90;;;;;;5049261;28;20517;-44
2023/03/02 02:39:40;;;;;;;56.75;26.13;;;0.10;99.90;;;;;;5049060;28;20028;-46
2023/03/02 02:42:18;;;;;;;58.75;29.02;;;0.20;99.90;;;;;;5047399;28;20029;-46
2023/03/02 02:44:44;;;;;;;64.22;27.77;;;0.20;99.90;;;;;;5048906;28;20052;-45
2023/03/02 02:47:19;;;;;;;62.53;27.00;;;0.30;99.90;;;;;;5048806;28;20528;-44
2023/03/02 02:49:47;;;;;;;60.75;28.40;;;0.30;99.90;;;;;;5049179;28;20017;-46
2023/03/02 02:52:19;;;;;;;78.80;30.58;;;0.30;99.90;;;;;;5048624;28;20032;-45
2023/03/02 02:54:47;;;;;;;69.05;28.85;;;0.30;99.90;;;;;;5048743;28;20056;-44
2023/03/02 02:57:16;;;;;;;97.68;32.53;;;0.30;99.90;;;;;;5048645;28;20033;-45
2023/03/02 03:00:03;;;;;;;71.40;29.27;;;0.30;99.90;;;;;;5049097;28;20021;-46
2023/03/02 03:02:36;;;;;;;69.53;29.77;;;0.40;99.90;;;;;;5046986;28;20090;-44
2023/03/02 03:05:01;;;;;;;103.47;30.73;;;0.40;99.90;;;;;;5048680;28;20025;-45
2023/03/02 03:07:29;;;;;;;66.00;28.42;;;0.50;99.90;;;;;;5049132;28;20356;-44
2023/03/02 03:09:59;;;;;;;62.55;28.98;;;0.40;99.90;;;;;;5048666;28;20056;-44
2023/03/02 03:12:25;;;;;;;;;;;0.50;99.90;;;;;;5047440;28;20505;-45
2023/03/02 03:14:52;;;;;;;72.97;29.10;;;0.50;99.90;;;;;;5048342;28;19959;-46
2023/03/02 03:17:18;;;;;;;73.10;29.13;;;0.50;99.90;;;;;;5047899;28;20033;-45
2023/03/02 03:19:45;;;;;;;61.08;27.20;;;0.50;99.90;;;;;;5048901;28;20044;-44
2023/03/02 03:22:13;;;;;;;61.75;26.38;;;0.50;99.90;;;;;;5048721;28;20490;-45
2023/03/02 03:24:40;;;;;;;59.47;25.85;;;0.60;99.90;;;;;;5048480;28;20135;-47
2023/03/02 03:27:07;;;;;;;63.80;28.17;;;0.60;99.90;;;;;;5048388;28;20576;-44
2023/03/02 03:29:34;;;;;;;67.70;29.13;;;0.60;99.90;;;;;;5051946;28;20119;-46
2023/03/02 03:32:01;;;;;;;78.82;28.42;;;0.50;99.90;;;;;;5055695;28;20028;-44
2023/03/02 03:34:28;;;;;;;67.30;30.60;;;0.50;99.90;;;;;;5072333;28;20093;-45
2023/03/02 03:37:00;;;;;;;71.93;31.17;;;0.60;99.90;;;;;;5070845;28;20021;-46
2023/03/02 03:39:28;;;;;;;71.35;29.67;;;0.50;99.90;;;;;;5072400;28;20103;-45
2023/03/02 03:41:54;;;;;;;64.22;28.48;;;0.50;99.90;;;;;;5072561;28;20020;-46
2023/03/02 03:44:20;;;;;;;57.08;27.40;;;0.50;99.90;;;;;;5071684;28;20040;-44
2023/03/02 03:46:45;;;;;;;72.53;29.85;;;0.50;99.90;;;;;;5072174;28;20217;-45
2023/03/02 03:49:11;;;;;;;77.63;29.35;;;0.50;99.90;;;;;;5070943;28;20434;-45
2023/03/02 03:51:37;;;;;;;54.53;27.08;;;0.50;99.90;;;;;;5072138;28;20048;-46
2023/03/02 03:54:06;;;;;;;56.08;26.70;;;0.50;99.90;;;;;;5071728;28;20440;-47
2023/03/02 03:56:38;;;;;;;54.35;26.10;;;0.50;99.90;;;;;;5072144;28;20108;-45
2023/03/02 03:59:05;;;;;;;56.55;27.17;;;0.60;99.90;;;;;;5072057;28;20020;-45
2023/03/02 04:01:41;;;;;;;73.90;30.95;;;0.50;99.90;;;;;;5063892;28;20017;-46
2023/03/02 04:04:10;;;;;;;59.25;27.67;;;0.60;99.90;;;;;;5051761;28;20033;-46
2023/03/02 04:06:35;;;;;;;65.18;29.55;;;0.50;99.90;;;;;;5052168;28;20194;-45
2023/03/02 04:09:04;;;;;;;73.30;29.65;;;0.50;99.90;;;;;;5052302;28;20506;-45
2023/03/02 04:11:35;;;;;;;61.17;28.23;;;0.50;99.90;;;;;;5050917;28;20308;-48
2023/03/02 04:14:01;;;;;;;66.18;30.02;;;0.50;99.90;;;;;;5050060;28;20025;-47
2023/03/02 04:16:28;;;;;;;65.90;29.10;;;0.60;99.90;;;;;;5051682;28;20075;-45
2023/03/02 04:18:54;;;;;;;65.90;28.73;;;0.60;99.90;;;;;;5051683;28;20033;-48
2023/03/02 04:21:20;;;;;;;55.45;25.25;;;0.60;99.90;;;;;;5051503;28;20044;-45
2023/03/02 04:23:45;;;;;;;75.50;29.10;;;0.60;99.90;;;;;;5051157;28;20029;-45
2023/03/02 04:26:11;;;;;;;66.60;29.17;;;0.60;99.90;;;;;;5051422;28;20383;-44
2023/03/02 04:28:36;;;;;;;56.92;27.17;;;0.60;99.90;;;;;;5050917;28;20378;-44
2023/03/02 04:31:02;;;;;;;63.47;28.45;;;0.60;99.90;;;;;;5051640;28;20151;-45
2023/03/02 04:33:27;;;;;;;60.78;27.30;;;0.60;99.90;;;;;;5051224;28;20443;-44
2023/03/02 04:35:53;;;;;;;52.88;25.85;;;0.60;99.90;;;;;;5051549;28;20017;-44
2023/03/02 04:38:19;;;;;;;52.85;25.63;;;0.60;99.90;;;;;;5051736;28;20017;-45
2023/03/02 04:40:45;;;;;;;75.10;26.63;;;0.50;99.90;;;;;;5050495;28;20028;-44
2023/03/02 04:43:10;;;;;;;55.42;27.08;;;0.60;99.90;;;;;;5050650;28;20279;-45
2023/03/02 04:45:36;;;;;;;64.00;26.00;;;0.50;99.90;;;;;;5051341;28;20529;-44
2023/03/02 04:48:02;;;;;;;53.90;26.45;;;0.50;99.90;;;;;;5051543;28;20068;-44
2023/03/02 04:50:28;;;;;;;76.97;27.67;;;0.50;99.90;;;;;;5050163;28;20035;-44
2023/03/02 04:52:54;;;;;;;59.03;26.33;;;0.50;99.90;;;;;;5050908;28;20541;-44
2023/03/02 04:55:22;;;;;;;56.00;25.85;;;0.50;99.90;;;;;;5050760;28;20086;-44
2023/03/02 04:57:47;;;;;;;52.55;25.02;;;0.50;99.90;;;;;;5050626;28;20032;-44
2023/03/02 05:00:15;;;;;;;69.57;27.30;;;0.50;99.90;;;;;;5050691;28;20398;-44
2023/03/02 05:02:41;;;;;;;53.38;24.77;;;0.50;99.90;;;;;;5050428;28;20116;-44
2023/03/02 05:05:07;;;;;;;54.50;24.77;;;0.40;99.90;;;;;;5050120;28;20529;-44
2023/03/02 05:07:32;;;;;;;50.35;25.67;;;0.50;99.90;;;;;;5050834;28;20029;-44
2023/03/02 05:09:58;;;;;;;45.85;23.08;;;0.40;99.90;;;;;;5050585;28;20040;-44
2023/03/02 05:12:23;;;;;;;50.40;24.75;;;0.50;99.90;;;;;;5050158;28;20055;-45
2023/03/02 05:14:49;;;;;;;55.00;24.60;;;0.50;99.90;;;;;;5050392;28;20571;-45
2023/03/02 05:17:14;;;;;;;49.25;24.77;;;0.50;99.90;;;;;;5050650;28;20107;-45
2023/03/02 05:19:40;;;;;;;53.15;24.00;;;0.50;99.90;;;;;;5050348;28;20790;-45
2023/03/02 05:22:06;;;;;;;52.13;24.90;;;0.50;99.90;;;;;;5050365;28;20474;-45
2023/03/02 05:24:31;;;;;;;54.97;27.33;;;0.50;99.90;;;;;;5050093;28;20396;-44
2023/03/02 05:26:57;;;;;;;50.45;24.85;;;0.50;99.90;;;;;;5050357;28;20386;-45
2023/03/02 05:29:22;;;;;;;59.95;26.35;;;0.40;99.90;;;;;;5049914;28;20036;-44
2023/03/02 05:31:48;;;;;;;55.38;26.52;;;0.30;99.90;;;;;;5050249;28;20035;-43
2023/03/02 05:34:16;;;;;;;63.17;27.55;;;0.40;99.90;;;;;;5050198;28;20055;-44
2023/03/02 05:36:43;;;;;;;76.10;27.40;;;0.40;99.90;;;;;;5050521;28;20025;-44
2023/03/02 05:39:09;;;;;;;57.05;26.58;;;0.40;99.90;;;;;;5050761;28;20374;-44
2023/03/02 05:41:36;;;;;;;57.00;25.23;;;0.40;99.90;;;;;;5049989;28;20024;-43
2023/03/02 05:44:03;;;;;;;56.75;24.90;;;0.40;99.90;;;;;;5049151;28;20104;-43
2023/03/02 05:46:29;;;;;;;52.97;25.48;;;0.30;99.90;;;;;;5046244;28;20452;-44
2023/03/02 05:48:54;;;;;;;55.97;25.77;;;0.30;99.90;;;;;;5050162;28;20103;-43
2023/03/02 05:51:20;;;;;;;60.95;27.17;;;0.40;99.90;;;;;;5049572;28;20025;-44
2023/03/02 05:53:46;;;;;;;53.90;23.83;;;0.30;99.90;;;;;;5049216;28;20029;-44
2023/03/02 05:56:11;;;;;;;58.45;25.58;;;0.40;99.90;;;;;;5049888;28;20021;-44
2023/03/02 05:58:38;;;;;;;51.35;23.70;;;0.30;99.90;;;;;;5058166;28;20048;-44
2023/03/02 06:01:08;;;;;;;49.95;24.30;;;0.40;99.90;;;;;;5069518;28;20502;-45
2023/03/02 06:03:34;;;;;;;52.67;24.40;;;0.40;99.90;;;;;;5069243;28;20063;-44
2023/03/02 06:05:59;;;;;;;65.25;25.73;;;0.40;99.90;;;;;;5069577;28;20060;-44
2023/03/02 06:08:25;;;;;;;59.75;23.98;;;0.40;99.90;;;;;;5069496;28;20058;-45
2023/03/02 06:10:54;;;;;;;65.10;25.20;;;0.30;99.90;;;;;;5069190;28;20025;-45
2023/03/02 06:13:20;;;;;;;66.28;24.67;;;0.30;99.90;;;;;;5068669;28;20070;-44
2023/03/02 06:15:45;;;;;;;51.22;23.52;;;0.40;99.90;;;;;;5066895;28;20017;-45
2023/03/02 06:18:11;;;;;;;57.67;26.92;;;0.40;99.90;;;;;;5047783;28;20410;-45
2023/03/02 06:20:37;;;;;;;56.85;25.65;;;0.40;99.90;;;;;;5049630;28;20025;-44
2023/03/02 06:23:02;;;;;;;49.47;25.17;;;0.40;99.90;;;;;;5049606;28;20020;-44
2023/03/02 06:25:28;;;;;;;52.40;24.20;;;0.40;99.90;;;;;;5049387;28;20541;-44
2023/03/02 06:27:53;;;;;;;65.25;26.45;;;0.50;99.90;;;;;;5048373;28;20074;-44
2023/03/02 06:30:22;;;;;;;56.65;24.83;;;0.50;99.90;;;;;;5047663;28;20067;-44
2023/03/02 06:32:48;;;;;;;47.58;22.85;;;0.50;99.90;;;;;;5047502;28;20037;-45
2023/03/02 06:35:14;;;;;;;49.78;24.33;;;0.50;99.90;;;;;;5047350;28;20037;-46
2023/03/02 06:37:40;;;;;;;54.08;23.15;;;0.50;99.90;;;;;;5046459;28;20082;-44
2023/03/02 06:40:10;;;;;;;50.05;23.73;;;0.50;99.90;;;;;;5047950;28;20471;-44
2023/03/02 06:42:36;;;;;;;53.97;23.52;;;0.50;99.90;;;;;;5047868;28;20025;-44
2023/03/02 06:45:02;;;;;;;48.85;23.65;;;0.50;99.90;;;;;;5047594;28;20036;-45
2023/03/02 06:47:27;;;;;;;48.35;22.85;;;0.60;99.90;;;;;;5048729;28;20421;-45
2023/03/02 06:49:53;;;;;;;50.50;22.25;;;0.60;99.90;;;;;;5047771;28;20021;-44
2023/03/02 06:52:18;;;;;;;56.45;22.45;;;0.60;99.90;;;;;;5048776;28;20021;-44
2023/03/02 06:54:44;;;;;;;45.63;19.83;;;0.60;99.90;;;;;;5048497;28;20029;-44
2023/03/02 06:57:09;;;;;;;52.10;23.75;;;0.60;99.90;;;;;;5048657;28;20028;-44
2023/03/02 06:59:35;;;;;;;44.90;20.80;;;0.60;99.90;;;;;;5063974;28;20107;-45
2023/03/02 07:02:01;;;;;;;42.63;22.30;;;0.60;99.90;;;;;;5048536;28;20025;-44
2023/03/02 07:04:29;;;;;;;43.65;20.65;;;0.50;99.90;;;;;;5048297;28;20029;-44
2023/03/02 07:06:55;;;;;;;47.83;22.33;;;0.50;99.90;;;;;;5048986;28;20043;-47
2023/03/02 07:09:21;;;;;;;43.00;21.27;;;0.60;99.90;;;;;;5048669;28;20033;-44
2023/03/02 07:11:48;;;;;;;57.83;23.08;;;0.50;99.90;;;;;;5048629;28;20100;-44
2023/03/02 07:14:13;;;;;;;43.13;21.17;;;0.50;99.90;;;;;;5048414;28;20090;-45
2023/03/02 07:16:39;;;;;;;48.50;22.50;;;0.60;99.90;;;;;;5048013;28;20021;-45
2023/03/02 07:19:05;;;;;;;44.28;20.65;;;0.60;99.90;;;;;;5048621;28;20021;-44
2023/03/02 07:21:30;;;;;;;40.95;20.08;;;0.60;99.90;;;;;;5048491;28;20028;-44
2023/03/02 07:23:56;;;;;;;48.45;20.48;;;0.60;99.90;;;;;;5048301;28;20025;-44
2023/03/02 07:26:21;;;;;;;42.53;21.27;;;0.60;99.90;;;;;;5048663;28;20502;-44
2023/03/02 07:28:47;;;;;;;47.25;21.60;;;0.70;99.90;;;;;;5048035;28;20021;-45
2023/03/02 07:31:12;;;;;;;56.88;21.23;;;0.70;99.90;;;;;;5048394;28;20363;-44
2023/03/02 07:33:39;;;;;;;40.72;21.10;;;0.80;99.90;;;;;;5046941;28;20059;-44
2023/03/02 07:36:06;;;;;;;39.60;19.70;;;0.80;99.90;;;;;;5048755;28;20060;-44
2023/03/02 07:38:32;;;;;;;42.42;18.77;;;0.70;99.90;;;;;;5048555;28;20390;-44
2023/03/02 07:40:57;;;;;;;37.60;19.25;;;0.80;99.90;;;;;;5048373;28;20048;-45
2023/03/02 07:43:24;;;;;;;50.50;20.08;;;0.80;99.90;;;;;;5048146;28;20057;-45
2023/03/02 07:45:50;;;;;;;41.33;19.83;;;0.80;99.90;;;;;;5047286;28;20059;-45
2023/03/02 07:48:16;;;;;;;38.67;19.75;;;0.80;99.90;;;;;;5048291;28;20039;-45
2023/03/02 07:50:41;;;;;;;38.42;19.98;;;0.80;99.90;;;;;;5048155;28;20025;-45
2023/03/02 07:53:07;;;;;;;42.85;20.83;;;0.90;99.90;;;;;;5047231;28;20025;-47
2023/03/02 07:55:32;;;;;;;33.75;17.30;;;0.90;99.90;;;;;;5047762;28;20095;-45
2023/03/02 07:57:58;;;;;;;38.17;19.23;;;1.00;99.90;;;;;;5047987;28;20130;-45
2023/03/02 08:00:23;;;;;;;40.33;19.67;;;1.00;99.90;;;;;;5046482;28;20017;-47
2023/03/02 08:02:49;;;;;;;38.33;19.10;;;1.10;99.90;;;;;;5048249;28;20025;-45
2023/03/02 08:05:15;;;;;;;36.10;18.55;;;1.10;99.90;;;;;;5047672;28;20055;-44
2023/03/02 08:07:41;;;;;;;34.00;17.65;;;1.10;99.90;;;;;;5048410;28;20021;-45
2023/03/02 08:10:07;;;;;;;43.15;17.95;;;1.20;99.90;;;;;;5048593;28;20082;-45
2023/03/02 08:12:33;;;;;;;34.13;18.00;;;1.20;99.90;;;;;;5048294;28;20033;-44
2023/03/02 08:14:58;;;;;;;40.63;17.35;;;1.30;99.90;;;;;;5049990;28;20082;-44
2023/03/02 08:17:24;;;;;;;40.67;16.88;;;1.30;99.90;;;;;;5051973;28;20021;-44
2023/03/02 08:19:50;;;;;;;28.05;16.08;;;1.20;99.90;;;;;;5051511;28;20104;-44
2023/03/02 08:22:15;;;;;;;30.73;16.83;;;1.20;99.90;;;;;;5051546;28;20025;-44
2023/03/02 08:24:41;;;;;;;40.30;17.95;;;1.20;99.90;;;;;;5051238;28;20103;-44
2023/03/02 08:27:12;;;;;;;33.15;17.25;;;1.20;99.90;;;;;;5051484;28;20044;-44
2023/03/02 08:29:37;;;;;;;44.05;18.95;;;1.10;99.90;;;;;;5068293;28;20020;-44
2023/03/02 08:32:03;;;;;;;32.72;17.33;;;1.10;99.90;;;;;;5071454;28;20035;-45
2023/03/02 08:34:28;;;;;;;35.60;17.55;;;1.10;99.90;;;;;;5070893;28;20103;-44
2023/03/02 08:36:54;;;;;;;40.55;18.17;;;1.30;99.90;;;;;;5071493;28;20442;-44
2023/03/02 08:39:21;;;;;;;32.55;18.23;;;1.30;99.90;;;;;;5071825;28;20024;-44
2023/03/02 08:41:52;;;;;;;35.75;17.30;;;1.40;99.90;;;;;;5071527;28;20040;-44
2023/03/02 08:44:20;;;;;;;47.60;17.98;;;1.40;99.90;;;;;;5070985;28;20025;-44
2023/03/02 08:46:47;;;;;;;32.63;17.48;;;1.40;99.90;;;;;;5071311;28;20433;-44
2023/03/02 08:49:13;;;;;;;33.63;17.65;;;1.40;99.90;;;;;;5071029;28;20374;-44
2023/03/02 08:51:38;;;;;;;30.27;16.17;;;1.40;99.90;;;;;;5071018;28;20259;-44
2023/03/02 08:54:04;;;;;;;34.33;17.17;;;1.50;99.90;;;;;;5070705;28;20070;-45
2023/03/02 08:56:32;;;;;;;41.30;18.10;;;1.50;99.90;;;;;;5071216;28;20032;-44
2023/03/02 08:59:03;;;;;;;29.42;16.20;;;1.50;99.90;;;;;;5061885;28;20016;-44
2023/03/02 09:01:32;;;;;;;29.92;15.18;;;1.60;99.90;;;;;;5071190;28;20470;-45
2023/03/02 09:03:59;;;;;;;33.00;16.58;;;1.60;99.90;;;;;;5070050;28;20028;-44
2023/03/02 09:06:26;;;;;;;31.73;17.35;;;1.60;99.90;;;;;;5070706;28;20024;-44
2023/03/02 09:08:52;;;;;;;30.92;16.52;;;1.70;99.90;;;;;;5071030;28;20036;-44
2023/03/02 09:11:18;;;;;;;30.30;16.48;;;1.60;99.90;;;;;;5071253;28;20410;-44
2023/03/02 09:13:43;;;;;;;39.20;17.17;;;1.60;99.90;;;;;;5070609;28;20027;-44
2023/03/02 09:16:09;;;;;;;26.50;15.75;;;1.60;99.90;;;;;;5066136;28;20021;-44
2023/03/02 09:18:35;;;;;;;34.35;16.20;;;1.70;99.90;;;;;;5050885;28;20498;-44
2023/03/02 09:21:01;;;;;;;28.50;14.75;;;1.70;99.90;;;;;;5050608;28;20104;-44
2023/03/02 09:23:28;;;;;;;24.58;13.43;;;1.70;99.90;;;;;;5050305;28;20474;-46
2023/03/02 09:25:54;;;;;;;27.55;14.95;;;1.60;99.90;;;;;;5050211;28;20025;-45
2023/03/02 09:28:23;;;;;;;25.23;13.82;;;1.70;99.90;;;;;;5050659;28;20028;-44
2023/03/02 09:30:51;;;;;;;29.60;14.70;;;1.70;99.90;;;;;;5050593;28;20075;-45
2023/03/02 09:33:18;;;;;;;24.70;13.73;;;1.70;99.90;;;;;;5049924;28;20020;-45
2023/03/02 09:35:44;;;;;;;30.60;16.10;;;1.80;99.90;;;;;;5050282;28;20025;-44
2023/03/02 09:38:14;;;;;;;29.15;15.32;;;1.80;99.90;;;;;;5049009;28;20036;-44
2023/03/02 09:40:47;;;;;;;24.77;13.98;;;1.80;99.90;;;;;;5050782;28;20017;-45
2023/03/02 09:43:26;;;;;;;27.40;15.35;;;1.90;99.90;;;;;;5050202;28;20021;-46
2023/03/02 09:45:54;;;;;;;31.77;16.17;;;1.90;99.90;;;;;;5050235;28;20029;-46
2023/03/02 09:48:29;;;;;;;25.73;14.52;;;1.90;99.90;;;;;;5049708;28;20029;-45
2023/03/02 09:51:06;;;;;;;21.52;13.80;;;2.00;99.90;;;;;;5050286;28;20589;-44
2023/03/02 09:54:03;;;;;;;25.80;15.43;;;2.10;99.90;;;;;;5057298;28;20043;-44
2023/03/02 09:56:30;;;;;;;24.42;14.10;;;2.00;99.90;;;;;;5049765;28;20032;-45
2023/03/02 09:59:27;;;;;;;25.35;13.07;;;2.10;99.90;;;;;;5049987;28;20036;-43
2023/03/02 10:02:17;;;;;;;28.02;14.00;;;2.10;99.90;;;;;;5048380;28;20596;-44
2023/03/02 10:05:07;;;;;;;26.92;14.38;;;2.20;99.90;;;;;;5049166;28;20029;-44
2023/03/02 10:07:36;;;;;;;25.45;13.48;;;2.20;99.90;;;;;;5050256;28;20055;-43
2023/03/02 10:10:20;;;;;;;25.40;14.35;;;2.30;99.90;;;;;;5049986;28;20017;-43
2023/03/02 10:13:24;;;;;;;25.92;13.50;;;2.40;99.90;;;;;;5049557;28;20021;-48
2023/03/02 10:16:26;;;;;;;29.65;15.10;;;2.30;99.90;;;;;;5038405;28;20098;-46
2023/03/02 10:19:19;;;;;;;29.83;14.82;;;2.30;99.90;;;;;;5049691;28;20430;-43
2023/03/02 10:21:48;;;;;;;23.77;12.80;;;2.40;99.90;;;;;;5049317;28;20418;-47
2023/03/02 10:24:21;;;;;;;24.95;13.10;;;2.50;99.90;;;;;;5049258;28;20079;-44
2023/03/02 10:26:52;;;;;;;23.45;13.32;;;2.60;99.90;;;;;;5049524;28;20025;-43
2023/03/02 10:29:38;;;;;;;27.58;14.43;;;2.50;99.90;;;;;;5049525;28;20017;-44
2023/03/02 10:32:20;;;;;;;24.08;13.00;;;2.60;99.90;;;;;;5049025;28;20034;-44
2023/03/02 10:34:48;;;;;;;25.23;14.35;;;2.70;99.90;;;;;;5047722;28;20329;-44
2023/03/02 10:37:18;;;;;;;24.50;13.95;;;2.80;99.90;;;;;;5048683;28;20021;-44
2023/03/02 10:39:43;;;;;;;26.27;14.65;;;2.80;99.90;;;;;;5049118;28;20052;-44
2023/03/02 10:42:19;;;;;;;23.23;13.77;;;2.90;99.90;;;;;;5049094;28;20091;-44
2023/03/02 10:44:58;;;;;;;31.75;14.05;;;2.90;99.90;;;;;;5049001;28;20054;-45
2023/03/02 10:47:27;;;;;;;24.05;14.25;;;2.90;99.90;;;;;;5048818;28;20025;-45
2023/03/02 10:49:55;;;;;;;23.17;12.88;;;2.90;99.90;;;;;;5048909;28;20028;-44
2023/03/02 10:52:23;;;;;;;26.92;13.82;;;2.90;99.90;;;;;;5049249;28;20024;-44
2023/03/02 10:54:49;;;;;;;25.13;13.93;;;2.80;99.90;;;;;;5048730;28;20513;-44
2023/03/02 10:57:37;;;;;;;24.13;13.80;;;2.80;99.90;;;;;;5049232;28;20021;-45
2023/03/02 11:00:14;;;;;;;28.17;15.93;;;2.90;99.90;;;;;;5047834;28;20314;-44
2023/03/02 11:02:48;;;;;;;24.00;13.73;;;2.80;99.90;;;;;;5048382;28;20017;-45
2023/03/02 11:05:35;;;;;;;20.90;12.20;;;2.70;99.90;;;;;;5048570;28;20419;-45
2023/03/02 11:08:07;;;;;;;22.35;12.52;;;2.70;99.90;;;;;;5049107;28;20104;-45
2023/03/02 11:10:50;;;;;;;22.38;12.55;;;2.80;99.90;;;;;;5047643;28;20028;-46
2023/03/02 11:13:25;;;;;;;26.17;14.18;;;2.90;99.90;;;;;;5048419;28;20029;-45
2023/03/02 11:15:52;;;;;;;28.20;15.25;;;2.90;99.90;;;;;;5048524;28;20025;-45
2023/03/02 11:18:34;;;;;;;26.60;14.50;;;3.00;99.90;;;;;;5048683;28;20505;-44
2023/03/02 11:21:26;;;;;;;27.95;13.25;;;3.10;99.90;;;;;;5060806;28;20017;-45
2023/03/02 11:24:05;;;;;;;24.60;14.73;;;3.10;99.90;;;;;;5047199;28;20529;-45
2023/03/02 11:26:48;;;;;;;21.13;11.75;;;3.10;99.90;;;;;;5048443;28;20039;-45
2023/03/02 11:29:42;;;;;;;24.60;13.07;;;3.10;99.90;;;;;;5048987;28;20021;-45
2023/03/02 11:32:27;;;;;;;23.60;13.57;;;3.20;99.90;;;;;;5048476;28;20021;-44
2023/03/02 11:35:20;;;;;;;27.60;13.93;;;3.40;99.90;;;;;;5048336;28;20498;-45
2023/03/02 11:37:51;;;;;;;21.77;12.82;;;3.50;99.90;;;;;;5048953;28;20083;-45
2023/03/02 11:40:41;;;;;;;25.48;14.40;;;3.60;99.90;;;;;;5048819;28;20107;-45
2023/03/02 11:43:08;;;;;;;23.13;13.68;;;3.50;99.90;;;;;;5048644;28;20382;-45
2023/03/02 11:45:40;;;;;;;24.35;14.10;;;3.50;99.90;;;;;;5048650;28;20029;-45
2023/03/02 11:48:38;;;;;;;21.35;12.70;;;3.50;99.90;;;;;;5048306;28;20425;-44
2023/03/02 11:51:11;;;;;;;22.67;13.57;;;3.70;99.90;;;;;;5048034;28;20397;-45
2023/03/02 11:53:42;;;;;;;22.88;13.25;;;3.70;99.90;;;;;;5051976;28;20108;-44
2023/03/02 11:56:08;;;;;;;22.38;12.52;;;3.80;99.90;;;;;;5051406;28;20292;-45
2023/03/02 11:58:35;;;;;;;25.65;14.77;;;3.80;99.90;;;;;;5050983;28;20036;-47
2023/03/02 12:01:01;;;;;;;22.60;13.13;;;3.80;99.90;;;;;;5052344;28;20048;-45
2023/03/02 12:03:30;;;;;;;25.98;14.52;;;3.70;99.90;;;;;;5051644;28;20025;-45
2023/03/02 12:06:24;;;;;;;21.73;13.35;;;3.70;99.90;;;;;;5052301;28;20104;-44
2023/03/02 12:09:07;;;;;;;25.95;13.98;;;3.70;99.90;;;;;;5052308;28;20080;-46
2023/03/02 12:11:37;;;;;;;21.70;12.75;;;3.70;99.90;;;;;;5051920;28;20025;-45
2023/03/02 12:14:25;;;;;;;22.08;13.57;;;3.80;99.90;;;;;;5051609;28;20564;-48
2023/03/02 12:16:51;;;;;;;24.17;14.18;;;3.80;99.90;;;;;;5040567;28;20475;-45
2023/03/02 12:19:16;;;;;;;21.95;13.65;;;3.80;99.90;;;;;;5052505;28;20032;-45
2023/03/02 12:21:55;;;;;;;24.77;15.18;;;3.90;99.90;;;;;;5049920;28;20021;-44
2023/03/02 12:24:29;;;;;;;25.60;14.98;;;4.00;99.90;;;;;;5050192;28;20029;-45
2023/03/02 12:27:24;;;;;;;24.25;13.98;;;3.90;99.90;;;;;;5040293;28;20037;-46
2023/03/02 12:30:14;;;;;;;26.55;15.30;;;3.90;99.90;;;;;;5051763;28;20028;-46
2023/03/02 12:32:42;;;;;;;26.45;15.32;;;3.90;99.90;;;;;;5066604;28;20027;-45
2023/03/02 12:35:11;;;;;;;29.38;15.95;;;3.80;99.90;;;;;;5049809;28;20533;-45
2023/03/02 12:37:42;;;;;;;30.88;16.75;;;3.70;99.90;;;;;;5051455;28;20024;-45
2023/03/02 12:40:23;;;;;;;27.92;14.73;;;3.70;99.90;;;;;;5051809;28;20021;-45
2023/03/02 12:42:48;;;;;;;;;;;3.80;99.90;;;;;;5051843;28;20336;-46
2023/03/02 12:45:42;;;;;;;29.48;16.77;;;3.80;99.90;;;;;;5049614;28;19944;-44
2023/03/02 12:48:30;;;;;;;29.02;16.63;;;3.80;99.90;;;;;;5049112;28;20075;-45